createdAt,value
2022-10-30T00:01:46.854Z,15.41
2022-10-30T00:04:14.539Z,15.02
2022-10-30T00:06:42.151Z,14.97
2022-10-30T00:09:11.042Z,15.17
2022-10-30T00:11:38.583Z,15.16
2022-10-30T00:14:06.154Z,15.16
2022-10-30T00:16:33.795Z,15.32
2022-10-30T00:19:01.864Z,15.35
2022-10-30T00:21:29.436Z,15.36
2022-10-30T00:23:57.014Z,15.43
2022-10-30T00:26:25.683Z,15.41
2022-10-30T00:28:55.329Z,15.43
2022-10-30T00:31:23.558Z,15.33
2022-10-30T00:33:52.365Z,15.06
2022-10-30T00:36:20.912Z,15.25
2022-10-30T00:38:49.772Z,15.37
2022-10-30T00:41:23.098Z,15.29
2022-10-30T00:43:51.429Z,15.45
2022-10-30T00:46:26.603Z,15.54
2022-10-30T00:48:59.382Z,15.55
2022-10-30T00:51:29.139Z,15.53
2022-10-30T00:54:01.194Z,15.39
2022-10-30T00:56:29.392Z,15.27
2022-10-30T00:59:10.116Z,15.28
2022-10-30T01:01:40.698Z,15.22
2022-10-30T01:04:08.923Z,15.06
2022-10-30T01:06:40.019Z,15.14
2022-10-30T01:09:07.962Z,15.02
2022-10-30T01:11:35.796Z,15.17
2022-10-30T01:14:08.297Z,15.37
2022-10-30T01:17:06.259Z,15.44
2022-10-30T01:22:45.021Z,15.42
2022-10-30T01:25:27.776Z,15.49
2022-10-30T01:28:35.450Z,15.49
2022-10-30T01:31:24.732Z,15.23
2022-10-30T01:34:05.161Z,15.24
2022-10-30T01:36:40.885Z,14.96
2022-10-30T01:39:14.723Z,14.94
2022-10-30T01:41:42.717Z,14.94
2022-10-30T01:44:18.192Z,14.93
2022-10-30T01:46:45.655Z,15.06
2022-10-30T01:49:16.322Z,14.98
2022-10-30T01:52:02.137Z,14.46
2022-10-30T01:55:08.194Z,14.95
2022-10-30T01:57:39.306Z,14.86
2022-10-30T02:00:15.737Z,14.90
2022-10-30T02:02:49.826Z,14.87
2022-10-30T02:05:36.700Z,14.64
2022-10-30T02:08:04.639Z,14.56
2022-10-30T02:10:35.187Z,14.39
2022-10-30T02:13:02.821Z,14.51
2022-10-30T02:15:31.877Z,14.30
2022-10-30T02:18:00.401Z,14.42
2022-10-30T02:20:28.663Z,14.51
2022-10-30T02:22:59.261Z,14.54
2022-10-30T02:25:31.599Z,14.42
2022-10-30T02:27:59.906Z,14.51
2022-10-30T02:30:29.608Z,14.33
2022-10-30T02:32:57.650Z,14.39
2022-10-30T02:35:25.501Z,13.80
2022-10-30T02:37:53.342Z,13.61
2022-10-30T02:40:20.906Z,13.40
2022-10-30T02:42:53.458Z,13.79
2022-10-30T02:45:21.560Z,13.97
2022-10-30T02:47:49.192Z,13.86
2022-10-30T02:50:17.221Z,14.14
2022-10-30T02:52:45.170Z,14.04
2022-10-30T02:55:12.910Z,14.05
2022-10-30T02:57:41.736Z,13.61
2022-10-30T03:00:09.963Z,13.69
2022-10-30T03:02:37.729Z,13.35
2022-10-30T03:05:05.651Z,13.84
2022-10-30T03:07:33.239Z,13.66
2022-10-30T03:10:00.788Z,13.56
2022-10-30T03:12:28.366Z,13.58
2022-10-30T03:14:55.869Z,13.62
2022-10-30T03:17:23.447Z,13.86
2022-10-30T03:19:51.595Z,13.89
2022-10-30T03:22:19.200Z,13.70
2022-10-30T03:24:46.839Z,13.75
2022-10-30T03:27:14.433Z,13.85
2022-10-30T03:29:41.989Z,13.93
2022-10-30T03:32:10.990Z,13.97
2022-10-30T03:34:46.080Z,13.84
2022-10-30T03:37:13.711Z,13.60
2022-10-30T03:39:41.203Z,13.72
2022-10-30T03:42:08.726Z,13.53
2022-10-30T03:44:36.229Z,13.69
2022-10-30T03:47:04.511Z,13.59
2022-10-30T03:49:39.834Z,13.64
2022-10-30T03:52:11.612Z,13.51
2022-10-30T03:54:39.198Z,13.20
2022-10-30T03:57:08.319Z,13.26
2022-10-30T03:59:48.988Z,13.06
2022-10-30T04:02:34.843Z,13.37
2022-10-30T04:05:02.318Z,13.37
2022-10-30T04:07:29.953Z,13.64
2022-10-30T04:09:57.496Z,13.23
2022-10-30T04:12:25.017Z,13.64
2022-10-30T04:14:53.816Z,13.73
2022-10-30T04:17:21.399Z,13.85
2022-10-30T04:19:49.440Z,13.74
2022-10-30T04:22:17.001Z,13.74
2022-10-30T04:24:45.404Z,13.60
2022-10-30T04:27:13.335Z,13.31
2022-10-30T04:29:42.259Z,13.21
2022-10-30T04:32:10.733Z,13.37
2022-10-30T04:34:39.555Z,13.29
2022-10-30T04:37:07.996Z,13.48
2022-10-30T04:39:35.741Z,13.36
2022-10-30T04:42:12.993Z,13.36
2022-10-30T04:44:42.944Z,13.59
2022-10-30T04:47:10.759Z,13.48
2022-10-30T04:49:38.699Z,13.64
2022-10-30T04:52:06.299Z,13.47
2022-10-30T04:54:33.755Z,13.62
2022-10-30T04:57:02.313Z,13.56
2022-10-30T04:59:30.615Z,13.51
2022-10-30T05:01:58.073Z,13.23
2022-10-30T05:04:25.804Z,13.33
2022-10-30T05:06:56.543Z,13.26
2022-10-30T05:09:24.295Z,13.19
2022-10-30T05:11:53.889Z,13.24
2022-10-30T05:14:25.001Z,13.33
2022-10-30T05:16:52.619Z,13.31
2022-10-30T05:19:20.189Z,13.49
2022-10-30T05:21:53.482Z,13.22
2022-10-30T05:24:21.173Z,13.31
2022-10-30T05:26:49.216Z,13.36
2022-10-30T05:29:17.294Z,13.26
2022-10-30T05:31:45.333Z,13.41
2022-10-30T05:34:24.983Z,13.18
2022-10-30T05:36:54.229Z,12.90
2022-10-30T05:39:22.421Z,13.29
2022-10-30T05:41:51.945Z,12.89
2022-10-30T05:44:29.192Z,12.92
2022-10-30T05:47:11.923Z,13.16
2022-10-30T05:49:47.690Z,12.80
2022-10-30T05:52:19.700Z,12.86
2022-10-30T05:54:48.805Z,13.21
2022-10-30T05:57:22.682Z,13.20
2022-10-30T05:59:50.450Z,13.40
2022-10-30T06:02:18.220Z,13.29
2022-10-30T06:05:03.207Z,13.47
2022-10-30T06:07:31.402Z,13.46
2022-10-30T06:09:59.349Z,13.49
2022-10-30T06:12:59.798Z,13.53
2022-10-30T06:15:45.510Z,13.75
2022-10-30T06:18:13.472Z,13.66
2022-10-30T06:20:46.066Z,13.71
2022-10-30T06:23:48.727Z,13.65
2022-10-30T06:26:29.933Z,13.59
2022-10-30T06:29:02.396Z,13.51
2022-10-30T06:31:31.110Z,13.21
2022-10-30T06:34:00.889Z,13.12
2022-10-30T06:36:29.917Z,13.26
2022-10-30T06:38:58.883Z,13.61
2022-10-30T06:41:30.741Z,13.49
2022-10-30T06:44:21.555Z,13.74
2022-10-30T06:46:49.151Z,13.63
2022-10-30T06:49:17.562Z,13.67
2022-10-30T06:51:45.496Z,14.05
2022-10-30T06:54:15.923Z,14.52
2022-10-30T06:56:43.410Z,14.77
2022-10-30T06:59:35.356Z,14.79
2022-10-30T07:02:23.280Z,14.71
2022-10-30T07:05:13.900Z,15.01
2022-10-30T07:07:41.393Z,15.14
2022-10-30T07:10:09.695Z,15.32
2022-10-30T07:13:01.999Z,15.47
2022-10-30T07:15:50.085Z,15.53
2022-10-30T07:18:24.852Z,15.51
2022-10-30T07:21:23.124Z,15.55
2022-10-30T07:23:53.022Z,15.68
2022-10-30T07:26:43.564Z,16.33
2022-10-30T07:29:31.966Z,16.36
2022-10-30T07:32:25.786Z,16.65
2022-10-30T07:35:12.351Z,16.92
2022-10-30T07:38:05.213Z,17.24
2022-10-30T07:40:53.641Z,17.22
2022-10-30T07:43:39.727Z,18.42
2022-10-30T07:46:27.517Z,19.31
2022-10-30T07:49:06.290Z,21.01
2022-10-30T07:51:42.744Z,22.33
2022-10-30T07:54:12.449Z,22.33
2022-10-30T07:56:39.962Z,23.16
2022-10-30T07:59:26.192Z,21.09
2022-10-30T08:02:19.734Z,22.05
2022-10-30T08:05:19.854Z,23.60
2022-10-30T08:08:05.753Z,24.05
2022-10-30T08:10:34.395Z,24.28
2022-10-30T08:13:07.056Z,24.70
2022-10-30T08:15:35.112Z,25.13
2022-10-30T08:18:03.458Z,26.17
2022-10-30T08:20:32.513Z,26.81
2022-10-30T08:23:00.553Z,27.44
2022-10-30T08:25:30.443Z,27.94
2022-10-30T08:28:00.032Z,26.62
2022-10-30T08:30:34.936Z,24.93
2022-10-30T08:33:06.975Z,24.86
2022-10-30T08:36:00.413Z,25.73
2022-10-30T08:38:28.724Z,25.27
2022-10-30T08:41:24.037Z,25.63
2022-10-30T08:43:53.347Z,26.40
2022-10-30T08:46:21.122Z,26.29
2022-10-30T08:48:49.037Z,26.13
2022-10-30T08:51:16.637Z,26.01
2022-10-30T08:53:50.362Z,26.15
2022-10-30T08:56:18.673Z,26.07
2022-10-30T08:58:59.036Z,26.19
2022-10-30T09:01:26.636Z,28.11
2022-10-30T09:04:20.605Z,28.32
2022-10-30T09:07:12.878Z,28.04
2022-10-30T09:09:49.831Z,26.68
2022-10-30T09:12:17.562Z,27.75
2022-10-30T09:17:58.089Z,30.27
2022-10-30T09:20:31.873Z,29.17
2022-10-30T09:23:01.389Z,27.68
2022-10-30T09:25:29.368Z,28.12
2022-10-30T09:29:13.117Z,27.84
2022-10-30T09:37:55.711Z,28.96
2022-10-30T10:02:00.210Z,27.79
2022-10-30T10:04:39.373Z,28.51
2022-10-30T10:07:32.523Z,28.14
2022-10-30T10:10:53.619Z,26.73
2022-10-30T10:13:38.792Z,27.13
2022-10-30T10:16:20.495Z,26.92
2022-10-30T10:22:22.113Z,25.69
2022-10-30T10:24:50.243Z,25.67
2022-10-30T10:27:32.902Z,24.39
2022-10-30T10:30:09.803Z,24.90
2022-10-30T10:33:01.590Z,25.95
2022-10-30T10:35:48.229Z,25.79
2022-10-30T10:38:54.030Z,24.13
2022-10-30T10:41:53.445Z,24.35
2022-10-30T10:45:25.112Z,25.78
2022-10-30T10:48:17.291Z,26.12
2022-10-30T10:55:18.787Z,23.99
2022-10-30T10:57:59.536Z,25.02
2022-10-30T11:00:31.610Z,25.41
2022-10-30T11:03:50.984Z,25.72
2022-10-30T11:06:27.357Z,26.20
2022-10-30T12:34:49.786Z,26.76
2022-10-30T12:37:20.987Z,26.43
2022-10-30T12:40:10.917Z,26.36
2022-10-30T12:56:49.538Z,26.56
2022-10-30T12:59:35.709Z,26.83
2022-10-30T13:02:17.337Z,26.50
2022-10-30T13:04:52.942Z,26.56
2022-10-30T13:07:32.673Z,26.64
2022-10-30T13:10:29.110Z,26.88
2022-10-30T13:13:03.414Z,26.88
2022-10-30T13:15:42.304Z,26.67
2022-10-30T13:18:19.396Z,26.67
2022-10-30T13:21:02.452Z,26.66
2022-10-30T13:24:18.978Z,26.98
2022-10-30T13:27:16.787Z,26.77
2022-10-30T13:30:20.032Z,26.63
2022-10-30T13:52:45.317Z,27.03
2022-10-30T13:59:38.213Z,26.52
2022-10-30T14:07:17.355Z,26.69
2022-10-30T14:10:09.272Z,26.91
2022-10-30T14:13:13.400Z,26.66
2022-10-30T14:19:09.211Z,26.73
2022-10-30T14:21:45.099Z,26.64
2022-10-30T14:29:38.909Z,26.49
2022-10-30T14:32:18.726Z,26.49
2022-10-30T14:47:14.608Z,26.33
2022-10-30T14:49:57.710Z,25.98
2022-10-30T14:53:03.432Z,26.08
2022-10-30T14:55:35.942Z,25.88
2022-10-30T14:58:05.938Z,25.86
2022-10-30T15:05:45.803Z,25.73
2022-10-30T15:08:31.489Z,25.69
2022-10-30T15:11:25.333Z,25.68
2022-10-30T15:13:59.048Z,25.61
2022-10-30T15:16:29.281Z,25.45
2022-10-30T15:19:04.852Z,25.41
2022-10-30T15:21:43.859Z,25.36
2022-10-30T15:24:20.959Z,25.11
2022-10-30T15:26:58.604Z,25.08
2022-10-30T15:29:30.278Z,25.05
2022-10-30T15:32:24.996Z,24.83
2022-10-30T15:35:03.214Z,24.68
2022-10-30T15:37:32.732Z,24.52
2022-10-30T15:40:20.555Z,24.45
2022-10-30T15:42:51.332Z,24.44
2022-10-30T15:45:46.945Z,24.37
2022-10-30T15:48:30.786Z,24.25
2022-10-30T15:51:01.875Z,23.99
2022-10-30T15:53:38.260Z,23.83
2022-10-30T15:56:11.757Z,23.50
2022-10-30T15:58:43.185Z,23.15
2022-10-30T16:01:25.470Z,23.45
2022-10-30T16:03:54.712Z,23.36
2022-10-30T16:06:27.081Z,22.95
2022-10-30T16:09:18.039Z,23.06
2022-10-30T16:11:55.338Z,22.84
2022-10-30T16:14:44.396Z,22.70
2022-10-30T16:17:28.950Z,22.46
2022-10-30T16:20:14.994Z,22.25
2022-10-30T16:52:19.808Z,21.04
2022-10-30T16:55:04.347Z,20.86
2022-10-30T16:57:37.131Z,20.74
2022-10-30T17:00:05.943Z,20.70
2022-10-30T17:02:43.755Z,20.34
2022-10-30T17:05:20.511Z,20.42
2022-10-30T17:07:58.920Z,20.32
2022-10-30T17:11:01.830Z,20.32
2022-10-30T17:13:33.641Z,20.34
2022-10-30T17:16:20.358Z,20.36
2022-10-30T17:18:54.096Z,20.33
2022-10-30T17:21:36.895Z,20.37
2022-10-30T17:24:05.103Z,20.22
2022-10-30T17:26:41.357Z,20.19
2022-10-30T17:29:37.562Z,20.16
2022-10-30T17:32:31.331Z,20.29
2022-10-30T17:35:09.917Z,19.94
2022-10-30T17:37:37.939Z,19.89
2022-10-30T17:40:07.004Z,20.10
2022-10-30T17:42:35.006Z,19.83
2022-10-30T17:45:07.327Z,19.81
2022-10-30T17:47:37.153Z,19.67
2022-10-30T17:50:06.329Z,19.56
2022-10-30T17:52:37.306Z,19.24
2022-10-30T17:55:21.957Z,19.43
2022-10-30T17:57:49.941Z,19.35
2022-10-30T18:00:21.305Z,19.24
2022-10-30T18:02:49.286Z,19.17
2022-10-30T18:05:22.054Z,19.15
2022-10-30T18:07:54.313Z,19.05
2022-10-30T18:10:23.085Z,19.26
2022-10-30T18:14:28.607Z,19.29
2022-10-30T18:34:31.369Z,19.42
2022-10-30T18:36:59.012Z,19.38
2022-10-30T18:39:26.914Z,19.24
2022-10-30T18:41:57.421Z,19.07
2022-10-30T18:44:32.329Z,19.18
2022-10-30T18:47:03.194Z,19.16
2022-10-30T18:49:33.504Z,19.29
2022-10-30T18:52:01.347Z,19.45
2022-10-30T18:54:29.038Z,19.35
2022-10-30T18:56:59.978Z,19.33
2022-10-30T18:59:27.662Z,19.29
2022-10-30T19:01:56.804Z,18.97
2022-10-30T19:04:24.456Z,18.83
2022-10-30T19:06:52.019Z,18.71
2022-10-30T19:09:19.587Z,18.84
2022-10-30T19:11:47.148Z,18.82
2022-10-30T19:14:16.026Z,18.91
2022-10-30T19:16:43.693Z,18.71
2022-10-30T19:19:15.132Z,18.69
2022-10-30T19:21:42.834Z,18.56
2022-10-30T19:24:15.118Z,18.53
2022-10-30T19:26:42.759Z,18.45
2022-10-30T19:29:10.396Z,18.45
2022-10-30T19:31:38.004Z,18.38
2022-10-30T19:34:05.569Z,18.55
2022-10-30T19:36:36.581Z,18.30
2022-10-30T19:39:22.195Z,18.27
2022-10-30T19:41:49.827Z,18.42
2022-10-30T19:44:18.452Z,18.33
2022-10-30T19:46:46.013Z,18.15
2022-10-30T19:49:19.826Z,18.27
2022-10-30T19:51:47.577Z,18.28
2022-10-30T19:54:15.233Z,18.08
2022-10-30T19:56:44.103Z,17.97
2022-10-30T19:59:15.405Z,17.81
2022-10-30T20:01:44.735Z,17.93
2022-10-30T20:04:13.059Z,17.91
2022-10-30T20:06:40.707Z,17.71
2022-10-30T20:09:13.043Z,17.78
2022-10-30T20:11:40.652Z,17.85
2022-10-30T20:14:08.266Z,17.93
2022-10-30T20:16:35.896Z,17.93
2022-10-30T20:19:26.720Z,17.94
2022-10-30T20:21:55.506Z,18.01
2022-10-30T20:24:23.576Z,17.81
2022-10-30T20:26:51.986Z,17.76
2022-10-30T20:29:19.704Z,18.02
2022-10-30T20:32:16.208Z,18.20
2022-10-30T20:34:48.761Z,18.19
2022-10-30T20:37:16.592Z,18.09
2022-10-30T20:39:44.360Z,18.14
2022-10-30T20:42:13.592Z,18.21
2022-10-30T20:44:41.299Z,18.15
2022-10-30T20:47:09.029Z,18.27
2022-10-30T20:49:36.741Z,18.30
2022-10-30T20:52:04.371Z,18.43
2022-10-30T20:54:34.378Z,18.42
2022-10-30T20:57:02.091Z,18.23
2022-10-30T20:59:29.893Z,18.27
2022-10-30T21:01:57.561Z,18.37
2022-10-30T21:04:25.310Z,18.25
2022-10-30T21:06:53.027Z,18.12
2022-10-30T21:09:21.052Z,18.03
2022-10-30T21:11:48.715Z,17.91
2022-10-30T21:14:16.557Z,17.74
2022-10-30T21:16:44.271Z,17.66
2022-10-30T21:19:12.081Z,17.53
2022-10-30T21:21:43.217Z,17.58
2022-10-30T21:24:13.149Z,17.57
2022-10-30T21:26:40.821Z,17.64
2022-10-30T21:29:08.604Z,17.51
2022-10-30T21:31:36.168Z,17.32
2022-10-30T21:34:03.804Z,17.29
2022-10-30T21:36:31.337Z,17.25
2022-10-30T21:39:01.257Z,17.47
2022-10-30T21:41:28.943Z,17.45
2022-10-30T21:43:58.323Z,17.29
2022-10-30T21:46:29.452Z,17.19
2022-10-30T21:49:01.848Z,17.05
2022-10-30T21:51:29.558Z,16.97
2022-10-30T21:53:57.403Z,16.92
2022-10-30T21:56:26.899Z,16.92
2022-10-30T21:59:04.869Z,16.89
2022-10-30T22:04:47.839Z,16.90
2022-10-30T22:07:18.559Z,16.88
2022-10-30T22:09:46.782Z,16.68
2022-10-30T22:12:14.832Z,16.35
2022-10-30T22:14:42.840Z,16.01
2022-10-30T22:17:13.015Z,16.32
2022-10-30T22:19:40.676Z,16.62
2022-10-30T22:22:09.264Z,16.62
2022-10-30T22:24:36.902Z,16.79
2022-10-30T22:27:04.678Z,16.98
2022-10-30T22:29:33.780Z,16.85
2022-10-30T22:32:01.443Z,16.70
2022-10-30T22:34:29.226Z,16.79
2022-10-30T22:36:57.030Z,16.73
2022-10-30T22:39:25.751Z,16.53
2022-10-30T22:41:58.358Z,16.40
2022-10-30T22:44:28.802Z,16.40
2022-10-30T22:46:59.231Z,16.40
2022-10-30T22:49:27.030Z,16.50
2022-10-30T22:51:56.008Z,16.36
2022-10-30T22:54:26.710Z,16.30
2022-10-30T22:56:56.036Z,16.23
2022-10-30T22:59:23.746Z,16.15
2022-10-30T23:01:51.452Z,16.15
2022-10-30T23:04:20.354Z,16.11
2022-10-30T23:09:33.504Z,16.26
2022-10-30T23:12:01.692Z,16.22
2022-10-30T23:14:31.552Z,16.15
2022-10-30T23:16:59.362Z,16.00
2022-10-30T23:19:28.526Z,15.98
2022-10-30T23:21:57.435Z,16.01
2022-10-30T23:24:26.302Z,15.94
2022-10-30T23:26:54.037Z,15.79
2022-10-30T23:29:21.764Z,15.09
2022-10-30T23:31:49.451Z,15.19
2022-10-30T23:34:17.397Z,15.19
2022-10-30T23:36:46.153Z,15.41
2022-10-30T23:39:16.673Z,15.09
2022-10-30T23:41:44.849Z,15.29
2022-10-30T23:44:15.410Z,14.93
2022-10-30T23:46:43.575Z,14.81
2022-10-30T23:49:12.633Z,15.01
2022-10-30T23:51:40.412Z,15.06
2022-10-30T23:54:10.379Z,15.26
2022-10-30T23:56:38.341Z,15.34
2022-10-30T23:59:09.802Z,15.29
